Aérodrome :
LOGIN :

S'inscrire | Disclaimer

   EN    FR    IT 

 










Légende :    VFR   VFR Marginal   IFR   IFR Intensif   IFR Très Intensif
Visi : 
Plafond : 
>= 8 km
>= 3000ft
5 à 8 km
1000 à 3000 ft
1500m à 5 km
500 à 1000 ft
800 à 1500m
200 à 500 ft
< 800m
< 200 ft
Symboles :   Orages  Brouillard  Fortes neiges  Fortes précipitations  Vent > 20 kt
SIGMETs :   Divers  Orages  Givrage  Turbulence  Onde Orograph.  Cendres Volcan.






- Altitude de l'aérodrome : 436 ft
- Code IATA : ANG


LFBU - Angoulême Brie Champniers

DERNIER METAR :
  • 291400Z AUTO 26013KT 9999 BKN028 OVC036 11/07 Q1004 TEMPO 3000 SHRA BKN020TCU BECMG 24020G30KT

METARs EXPIRÉS :
  • 291330Z AUTO 27016KT 9999 FEW031 BKN039 BKN046 12/06 Q1004 TEMPO 3000 SHRA BKN020TCU BECMG 24020G30KT
  • 291300Z AUTO 27017KT 230V290 9999 FEW026/// BKN032/// BKN041/// ///TCU 12/06 Q1003 TEMPO 3000 SHRA BECMG 24020G30KT
  • 291230Z AUTO 26017KT 9999 BKN029/// BKN036/// BKN043/// ///TCU 13/07 Q1003 TEMPO 3000 SHRA BECMG 24020G30KT
  • 291200Z AUTO 25018G28KT 9999 BKN031/// BKN040/// BKN230/// ///TCU 13/07 Q1003 TEMPO 3000 SHRA
  • 291130Z AUTO 24020G31KT 210V270 9999 BKN032/// BKN039/// OVC046/// ///TCU 13/07 Q1002 TEMPO 3000 SHRA

TAF TAF LFBU
Valide du 29 à 12h jusqu'au 01 à 12h UTC


291100Z 2912/0112 24020G30KT 9999 BKN030
TEMPO 2912/2918 3000 SHRA BKN020TCU
BECMG 2918/2920 21012KT
PROB30
TEMPO 2920/0106 -SHRA BKN030TCU
BECMG 0107/0109 23020G40KT



MET'MAP, la Météo Aéronautique d'un coup d'oeil ! - Copyright ORBIFLY Décembre 2007 - Disclaimer

ORBIFLY MET'MAP TEAM :

Programmation & Développement : Alexandra Zaïnal
Sur une idée originale de : Baudouin d'Aumeries
Assistance à la programmation : Marc-Olivier Méhu
Soutien technique & logistique : Manuel Goepfert

Contact : metmap@orbifly.com




SOURCES & CREDITS :

   NOAA